Time;durP1;ratioP1;P1;durP2;ratioP2;P2;SDS_P1;SDS_P2;PMS_P1;PMS_P2;Temp;Humidity;BMP_temperature;BMP_pressure;BME280_temperature;BME280_humidity;BME280_pressure;Samples;Min_cycle;Max_cycle;Signal;HPM_P1;HPM_P2
2024/03/12 00:00:35;;;;;;;46.65;34.65;;;9.40;99.90;;;;;;5013909;28;20038;-84
2024/03/12 00:03:01;;;;;;;45.67;33.53;;;9.40;99.90;;;;;;5013928;28;20025;-82
2024/03/12 00:05:28;;;;;;;44.75;33.15;;;9.40;99.90;;;;;;5013820;28;20033;-83
2024/03/12 00:07:53;;;;;;;44.92;34.05;;;9.40;99.90;;;;;;5014895;28;20029;-83
2024/03/12 00:10:20;;;;;;;46.78;36.17;;;9.40;99.90;;;;;;5014229;28;20026;-83
2024/03/12 00:12:51;;;;;;;49.22;36.70;;;9.40;99.90;;;;;;5014368;28;20034;-84
2024/03/12 00:15:22;;;;;;;44.78;34.95;;;9.40;99.90;;;;;;5030766;28;20025;-84
2024/03/12 00:17:53;;;;;;;50.13;37.30;;;9.50;99.90;;;;;;5016307;28;20022;-83
2024/03/12 00:20:36;;;;;;;47.78;36.08;;;9.50;99.90;;;;;;5029653;28;20010;-81
2024/03/12 00:23:02;;;;;;;51.88;37.17;;;9.50;99.90;;;;;;5054554;28;20024;-83
2024/03/12 00:25:30;;;;;;;50.15;35.33;;;9.50;99.90;;;;;;5054169;28;20054;-83
2024/03/12 00:27:56;;;;;;;49.03;35.53;;;9.50;99.90;;;;;;5038393;28;20070;-83
2024/03/12 00:30:25;;;;;;;47.85;35.28;;;9.50;99.90;;;;;;5018194;28;20057;-83
2024/03/12 00:33:03;;;;;;;48.50;34.72;;;9.50;99.90;;;;;;5030441;28;20026;-84
2024/03/12 00:35:32;;;;;;;51.28;36.33;;;9.50;99.90;;;;;;5030262;28;20385;-83
2024/03/12 00:38:03;;;;;;;53.00;36.45;;;9.50;99.90;;;;;;5013607;28;20125;-83
2024/03/12 00:40:40;;;;;;;52.65;36.47;;;9.50;99.90;;;;;;5013267;28;20125;-83
2024/03/12 00:43:07;;;;;;;52.08;37.28;;;9.60;99.90;;;;;;5014652;28;20037;-84
2024/03/12 00:45:41;;;;;;;55.45;36.92;;;9.60;99.90;;;;;;5013505;28;20032;-83
2024/03/12 00:48:12;;;;;;;55.90;36.50;;;9.60;99.90;;;;;;5014432;28;20054;-83
2024/03/12 00:50:39;;;;;;;54.75;37.30;;;9.60;99.90;;;;;;5029885;28;20033;-83
2024/03/12 00:53:07;;;;;;;57.85;38.42;;;9.60;99.90;;;;;;5013432;28;20548;-83
2024/03/12 00:55:35;;;;;;;52.67;35.50;;;9.60;99.90;;;;;;5013421;28;20382;-83
2024/03/12 00:58:00;;;;;;;56.28;36.28;;;9.50;99.90;;;;;;5014382;28;20022;-83
2024/03/12 01:00:33;;;;;;;57.08;37.75;;;9.50;99.90;;;;;;5013247;28;20026;-83
2024/03/12 01:03:00;;;;;;;58.75;37.72;;;9.50;99.90;;;;;;5014824;28;20029;-85
2024/03/12 01:05:30;;;;;;;55.25;37.25;;;9.50;99.90;;;;;;5029555;28;20030;-82
2024/03/12 01:08:01;;;;;;;59.60;37.90;;;9.50;99.90;;;;;;5014247;28;20303;-84
2024/03/12 01:10:28;;;;;;;61.22;37.58;;;9.50;99.90;;;;;;5029735;28;20497;-83
2024/03/12 01:12:55;;;;;;;60.58;37.45;;;9.40;99.90;;;;;;5013467;28;20026;-83
2024/03/12 01:15:25;;;;;;;58.22;36.97;;;9.40;99.90;;;;;;5013502;28;20033;-82
2024/03/12 01:17:53;;;;;;;59.72;36.17;;;9.40;99.90;;;;;;5013614;28;20038;-83
2024/03/12 01:20:24;;;;;;;59.72;36.45;;;9.40;99.90;;;;;;5029840;28;20029;-83
2024/03/12 01:22:57;;;;;;;;;;;9.40;99.90;;;;;;5014403;28;20393;-82
2024/03/12 01:25:24;;;;;;;55.35;34.90;;;9.40;99.90;;;;;;5030115;28;19941;-83
2024/03/12 01:27:55;;;;;;;57.92;35.97;;;9.40;99.90;;;;;;4997734;28;20033;-84
2024/03/12 01:30:27;;;;;;;61.80;37.92;;;9.40;99.90;;;;;;5029569;28;20030;-84
2024/03/12 01:32:53;;;;;;;58.45;37.05;;;9.40;99.90;;;;;;4997341;28;20113;-83
2024/03/12 01:35:24;;;;;;;57.88;36.15;;;9.40;99.90;;;;;;5029067;28;20033;-84
2024/03/12 01:37:51;;;;;;;60.25;34.83;;;9.40;99.90;;;;;;4997874;28;20481;-84
2024/03/12 01:40:29;;;;;;;57.95;35.90;;;9.40;99.90;;;;;;5029513;28;20440;-83
2024/03/12 01:43:14;;;;;;;52.75;34.45;;;9.30;99.90;;;;;;5013200;28;20505;-84
2024/03/12 01:45:42;;;;;;;56.15;35.38;;;9.40;99.90;;;;;;5030128;28;20117;-83
2024/03/12 01:48:08;;;;;;;53.88;35.40;;;9.40;99.90;;;;;;4983155;28;20026;-83
2024/03/12 01:50:38;;;;;;;59.65;37.63;;;9.30;99.90;;;;;;5034312;28;20025;-83
2024/03/12 01:53:05;;;;;;;60.63;38.08;;;9.40;99.90;;;;;;5040763;28;20026;-83
2024/03/12 01:55:34;;;;;;;56.53;36.10;;;9.30;99.90;;;;;;5040716;28;20014;-83
2024/03/12 01:58:00;;;;;;;53.92;34.78;;;9.40;99.90;;;;;;5038658;28;20024;-82
2024/03/12 02:00:29;;;;;;;60.92;36.65;;;9.40;99.90;;;;;;5001391;28;20022;-81
2024/03/12 02:02:54;;;;;;;57.35;35.33;;;9.40;99.90;;;;;;5017082;28;20071;-83
2024/03/12 02:05:22;;;;;;;64.47;37.47;;;9.40;99.90;;;;;;5017589;28;20390;-83
2024/03/12 02:07:51;;;;;;;64.63;37.78;;;9.30;99.90;;;;;;5019317;28;20045;-82
2024/03/12 02:10:18;;;;;;;61.25;36.58;;;9.30;99.90;;;;;;5018173;28;20125;-83
2024/03/12 02:12:45;;;;;;;63.35;38.17;;;9.30;99.90;;;;;;5017976;28;20092;-83
2024/03/12 02:15:17;;;;;;;63.05;36.35;;;9.30;99.90;;;;;;5033824;28;20116;-82
2024/03/12 02:17:44;;;;;;;61.78;37.08;;;9.30;99.90;;;;;;5021322;28;20060;-82
2024/03/12 02:20:10;;;;;;;59.10;36.33;;;9.30;99.90;;;;;;5039267;28;20022;-83
2024/03/12 02:22:39;;;;;;;61.55;37.30;;;9.30;99.90;;;;;;5053664;28;20374;-83
2024/03/12 02:25:06;;;;;;;63.78;37.78;;;9.30;99.90;;;;;;5051795;28;20355;-83
2024/03/12 02:27:32;;;;;;;62.90;37.88;;;9.30;99.90;;;;;;5008029;28;20030;-84
2024/03/12 02:29:58;;;;;;;64.13;37.83;;;9.30;99.90;;;;;;5000952;28;20061;-84
2024/03/12 02:32:24;;;;;;;59.95;35.90;;;9.30;99.90;;;;;;5016958;28;20030;-84
2024/03/12 02:34:51;;;;;;;57.03;34.92;;;9.30;99.90;;;;;;5015905;28;20080;-83
2024/03/12 02:37:16;;;;;;;53.05;33.63;;;9.30;99.90;;;;;;5031922;28;20014;-82
2024/03/12 02:39:42;;;;;;;56.20;35.42;;;9.30;99.90;;;;;;5015817;28;20071;-82
2024/03/12 02:42:08;;;;;;;56.03;35.70;;;9.30;99.90;;;;;;5015784;28;20026;-83
2024/03/12 02:44:37;;;;;;;53.28;33.33;;;9.40;99.90;;;;;;5015495;28;20037;-83
2024/03/12 02:47:05;;;;;;;51.47;35.00;;;9.40;99.90;;;;;;5015588;28;20026;-84
2024/03/12 02:49:31;;;;;;;51.50;32.17;;;9.40;99.90;;;;;;5016356;28;20109;-82
2024/03/12 02:52:00;;;;;;;52.30;33.78;;;9.40;99.90;;;;;;5015262;28;20529;-82
2024/03/12 02:54:26;;;;;;;50.20;33.25;;;9.40;99.90;;;;;;5015252;28;20022;-84
2024/03/12 02:56:53;;;;;;;53.88;34.45;;;9.40;99.90;;;;;;5016380;28;20024;-82
2024/03/12 02:59:22;;;;;;;48.70;33.83;;;9.40;99.90;;;;;;4999199;28;20112;-82
2024/03/12 03:01:47;;;;;;;50.38;34.55;;;9.40;99.90;;;;;;5030865;28;20054;-83
2024/03/12 03:04:13;;;;;;;50.33;32.88;;;9.40;99.90;;;;;;5015259;28;20072;-82
2024/03/12 03:06:39;;;;;;;49.83;33.22;;;9.40;99.90;;;;;;5015198;28;20500;-83
2024/03/12 03:09:05;;;;;;;49.10;32.50;;;9.40;99.90;;;;;;5014870;28;20033;-83
2024/03/12 03:11:32;;;;;;;50.75;33.17;;;9.40;99.90;;;;;;5014773;28;20029;-83
2024/03/12 03:14:00;;;;;;;47.65;31.52;;;9.40;99.90;;;;;;5031839;28;20496;-83
2024/03/12 03:16:27;;;;;;;47.33;32.58;;;9.40;99.90;;;;;;5015739;28;20026;-82
2024/03/12 03:18:54;;;;;;;49.97;31.92;;;9.40;99.90;;;;;;5025904;28;20033;-82
2024/03/12 03:21:23;;;;;;;46.47;31.65;;;9.40;99.90;;;;;;5039511;28;20036;-83
2024/03/12 03:23:48;;;;;;;43.20;29.63;;;9.40;99.90;;;;;;5038784;28;20025;-82
2024/03/12 03:26:14;;;;;;;47.50;30.23;;;9.40;99.90;;;;;;5038506;28;20042;-81
2024/03/12 03:28:40;;;;;;;43.67;29.02;;;9.40;99.90;;;;;;5026121;28;20034;-83
2024/03/12 03:31:06;;;;;;;47.65;30.13;;;9.40;99.90;;;;;;5014953;28;20192;-83
2024/03/12 03:33:31;;;;;;;41.05;28.05;;;9.40;99.90;;;;;;4998582;28;20037;-83
2024/03/12 03:35:58;;;;;;;44.45;28.95;;;9.30;99.90;;;;;;5014628;28;20529;-83
2024/03/12 03:38:27;;;;;;;46.25;29.30;;;9.30;99.90;;;;;;5015768;28;20034;-83
2024/03/12 03:40:53;;;;;;;41.90;28.00;;;9.30;99.90;;;;;;5015239;28;20041;-84
2024/03/12 03:43:19;;;;;;;36.90;26.23;;;9.30;99.90;;;;;;5014338;28;20030;-84
2024/03/12 03:45:45;;;;;;;37.90;27.38;;;9.30;99.90;;;;;;5014636;28;20037;-83
2024/03/12 03:48:10;;;;;;;39.13;25.55;;;9.30;99.90;;;;;;5014110;28;20033;-82
2024/03/12 03:50:37;;;;;;;36.40;25.35;;;9.30;99.90;;;;;;5014099;28;20486;-84
2024/03/12 03:53:03;;;;;;;37.55;26.25;;;9.40;99.90;;;;;;5015168;28;20117;-84
2024/03/12 03:55:28;;;;;;;37.35;26.80;;;9.40;99.90;;;;;;5014946;28;20457;-81
2024/03/12 03:57:54;;;;;;;36.28;25.33;;;9.40;99.90;;;;;;5015232;28;20034;-83
2024/03/12 04:00:23;;;;;;;35.22;24.75;;;9.30;99.90;;;;;;5013700;28;20030;-84
2024/03/12 04:02:51;;;;;;;34.40;23.90;;;9.30;99.90;;;;;;5030567;28;20034;-84
2024/03/12 04:05:18;;;;;;;34.28;23.98;;;9.30;99.90;;;;;;5014219;28;20034;-83
2024/03/12 04:07:44;;;;;;;38.10;24.45;;;9.30;99.90;;;;;;5013898;28;20041;-84
2024/03/12 04:10:10;;;;;;;32.63;24.15;;;9.30;99.90;;;;;;5013791;28;20037;-84
2024/03/12 04:12:45;;;;;;;32.53;22.90;;;9.30;99.90;;;;;;5013910;28;20050;-83
2024/03/12 04:15:12;;;;;;;28.67;21.20;;;9.30;99.90;;;;;;5013086;28;20037;-83
2024/03/12 04:17:38;;;;;;;32.30;22.08;;;9.30;99.90;;;;;;5014740;28;20030;-83
2024/03/12 04:20:11;;;;;;;32.58;23.10;;;9.30;99.90;;;;;;5013783;28;20402;-82
2024/03/12 04:22:37;;;;;;;28.77;20.92;;;9.30;99.90;;;;;;5014160;28;20034;-83
2024/03/12 04:25:05;;;;;;;28.65;20.88;;;9.30;99.90;;;;;;5015624;28;20195;-82
2024/03/12 04:27:31;;;;;;;28.02;20.83;;;9.20;99.90;;;;;;5015788;28;20030;-83
2024/03/12 04:29:57;;;;;;;30.73;20.17;;;9.20;99.90;;;;;;5013605;28;20041;-83
2024/03/12 04:32:27;;;;;;;32.67;20.75;;;9.20;99.90;;;;;;5013205;28;20165;-83
2024/03/12 04:34:55;;;;;;;31.60;20.15;;;9.20;99.90;;;;;;5013604;28;20466;-82
2024/03/12 04:37:22;;;;;;;30.98;20.63;;;9.20;99.90;;;;;;5014806;28;20072;-82
2024/03/12 04:39:48;;;;;;;33.10;20.67;;;9.10;99.90;;;;;;5014861;28;20026;-83
2024/03/12 04:42:14;;;;;;;28.08;19.58;;;9.10;99.90;;;;;;4997078;28;20032;-84
2024/03/12 04:44:40;;;;;;;29.63;20.77;;;9.10;99.90;;;;;;5015879;28;20030;-83
2024/03/12 04:47:05;;;;;;;31.33;19.98;;;9.20;99.90;;;;;;5016452;28;20050;-83
2024/03/12 04:49:31;;;;;;;28.40;18.63;;;9.10;99.90;;;;;;5036609;28;20017;-82
2024/03/12 04:52:00;;;;;;;28.80;19.48;;;9.20;99.90;;;;;;5021242;28;20010;-83
2024/03/12 04:54:25;;;;;;;30.70;20.02;;;9.20;99.90;;;;;;5038251;28;20017;-84
2024/03/12 04:56:51;;;;;;;32.85;20.85;;;9.20;99.90;;;;;;5015095;28;20030;-83
2024/03/12 04:59:17;;;;;;;27.90;19.45;;;9.20;99.90;;;;;;5013702;28;20034;-85
2024/03/12 05:01:48;;;;;;;30.40;19.35;;;9.20;99.90;;;;;;5015135;28;20030;-85
2024/03/12 05:04:14;;;;;;;;;;;9.20;99.90;;;;;;5014623;28;20034;-83
2024/03/12 05:06:40;;;;;;;28.17;18.38;;;9.20;99.90;;;;;;5015463;28;19910;-84
2024/03/12 05:09:06;;;;;;;28.95;18.77;;;9.20;99.90;;;;;;5014646;28;20033;-83
2024/03/12 05:11:36;;;;;;;29.13;19.08;;;9.20;99.90;;;;;;5000048;28;20461;-83
2024/03/12 05:14:03;;;;;;;30.67;19.27;;;9.20;99.90;;;;;;5029085;28;20160;-83
2024/03/12 05:16:29;;;;;;;25.13;17.73;;;9.20;99.90;;;;;;5051350;28;20141;-82
2024/03/12 05:18:55;;;;;;;26.85;18.00;;;9.20;99.90;;;;;;5032294;28;20470;-84
2024/03/12 05:21:26;;;;;;;24.50;16.75;;;9.10;99.90;;;;;;5030535;28;20060;-84
2024/03/12 05:23:55;;;;;;;23.23;15.63;;;9.10;99.90;;;;;;5015537;28;20030;-86
2024/03/12 05:26:25;;;;;;;24.70;15.65;;;9.10;99.90;;;;;;5016273;28;20057;-84
2024/03/12 05:28:52;;;;;;;25.73;16.13;;;9.10;99.90;;;;;;5033861;28;20518;-85
2024/03/12 05:31:29;;;;;;;26.60;16.60;;;9.10;99.90;;;;;;5016887;28;20041;-81
2024/03/12 05:33:59;;;;;;;23.48;15.98;;;9.10;99.90;;;;;;5017764;28;20068;-84
2024/03/12 05:36:25;;;;;;;24.70;16.75;;;9.10;99.90;;;;;;5032985;28;20057;-84
2024/03/12 05:39:15;;;;;;;28.73;16.70;;;9.10;99.90;;;;;;5000052;28;20425;-83
2024/03/12 05:41:48;;;;;;;25.90;17.65;;;9.10;99.90;;;;;;5020067;28;20037;-84
2024/03/12 05:49:45;;;;;;;34.50;19.70;;;9.00;99.90;;;;;;5016940;28;20037;-84
2024/03/12 05:52:11;;;;;;;35.65;21.17;;;9.00;99.90;;;;;;5000228;28;20030;-84
2024/03/12 05:54:37;;;;;;;42.78;22.35;;;9.00;99.90;;;;;;4983851;28;20441;-84
2024/03/12 05:57:03;;;;;;;39.03;21.38;;;9.00;99.90;;;;;;5016137;28;20474;-85
2024/03/12 05:59:29;;;;;;;39.17;23.17;;;9.00;99.90;;;;;;4999700;28;20030;-83
2024/03/12 06:01:54;;;;;;;39.35;22.52;;;9.00;99.90;;;;;;5016014;28;20045;-84
2024/03/12 06:04:20;;;;;;;42.22;23.35;;;8.90;99.90;;;;;;4999671;28;20029;-83
2024/03/12 06:06:46;;;;;;;42.60;24.00;;;9.00;99.90;;;;;;4999462;28;20033;-84
2024/03/12 06:09:12;;;;;;;44.35;23.95;;;8.90;99.90;;;;;;5016006;28;20030;-84
2024/03/12 06:11:39;;;;;;;47.03;24.75;;;8.90;99.90;;;;;;5015814;28;20470;-84
2024/03/12 06:14:06;;;;;;;47.00;24.63;;;8.90;99.90;;;;;;5016547;28;20025;-84
2024/03/12 06:16:32;;;;;;;42.83;23.48;;;8.90;99.90;;;;;;5023997;28;20030;-83
2024/03/12 06:18:58;;;;;;;41.80;23.63;;;8.90;99.90;;;;;;5040165;28;20025;-82
2024/03/12 06:21:24;;;;;;;45.83;23.95;;;8.90;99.90;;;;;;5040361;28;20018;-83
2024/03/12 06:23:49;;;;;;;41.22;23.15;;;8.90;99.90;;;;;;5023576;28;20030;-84
2024/03/12 06:26:15;;;;;;;40.72;23.33;;;8.90;99.90;;;;;;5028434;28;20485;-85
2024/03/12 06:28:41;;;;;;;42.80;23.05;;;8.80;99.90;;;;;;4999594;28;20037;-85
2024/03/12 06:31:08;;;;;;;37.88;21.58;;;8.80;99.90;;;;;;5015862;28;20378;-84
2024/03/12 06:33:34;;;;;;;40.38;22.55;;;8.90;99.90;;;;;;5000002;28;20406;-84
2024/03/12 06:36:00;;;;;;;39.75;23.60;;;8.90;99.90;;;;;;5017082;28;20034;-84
2024/03/12 06:38:26;;;;;;;41.83;22.27;;;8.90;99.90;;;;;;5014591;28;20049;-85
2024/03/12 06:40:52;;;;;;;36.10;22.15;;;8.90;99.90;;;;;;5016054;28;20030;-84
2024/03/12 06:43:19;;;;;;;40.10;23.02;;;8.90;99.90;;;;;;5015548;28;20030;-84
2024/03/12 06:45:46;;;;;;;40.95;21.85;;;8.80;99.90;;;;;;5015420;28;20488;-84
2024/03/12 06:48:13;;;;;;;37.95;22.73;;;8.80;99.90;;;;;;5015278;28;20478;-84
2024/03/12 06:50:39;;;;;;;39.78;22.75;;;8.80;99.90;;;;;;4999159;28;20088;-84
2024/03/12 06:53:05;;;;;;;38.85;22.00;;;8.80;99.90;;;;;;4999188;28;20038;-83
2024/03/12 06:55:32;;;;;;;38.17;21.35;;;8.90;99.90;;;;;;5015202;28;20093;-82
2024/03/12 06:58:11;;;;;;;38.25;21.15;;;8.90;99.90;;;;;;5015083;28;20052;-84
2024/03/12 07:00:39;;;;;;;36.13;21.92;;;8.90;99.90;;;;;;5001786;28;20544;-84
2024/03/12 07:03:06;;;;;;;36.85;20.40;;;8.90;99.90;;;;;;4999172;28;20026;-83
2024/03/12 07:05:43;;;;;;;37.25;20.70;;;8.90;99.90;;;;;;5014701;28;20054;-84
2024/03/12 07:08:10;;;;;;;37.97;20.63;;;8.90;99.90;;;;;;5031474;28;20438;-83
2024/03/12 07:10:40;;;;;;;41.55;22.15;;;8.90;99.90;;;;;;5031564;28;20033;-85
2024/03/12 07:13:07;;;;;;;39.28;20.23;;;9.00;99.90;;;;;;5031445;28;20466;-84
2024/03/12 07:15:36;;;;;;;37.70;20.40;;;9.00;99.90;;;;;;5031393;28;20026;-84
2024/03/12 07:18:05;;;;;;;38.75;20.88;;;9.00;99.90;;;;;;5031333;28;20018;-84
2024/03/12 07:20:34;;;;;;;36.50;21.00;;;9.00;99.90;;;;;;5015598;28;20034;-83
2024/03/12 07:23:03;;;;;;;39.35;20.70;;;9.00;99.90;;;;;;5014679;28;20030;-84
2024/03/12 07:25:30;;;;;;;34.88;20.45;;;9.00;99.90;;;;;;5014509;28;20112;-84
2024/03/12 07:28:01;;;;;;;35.67;20.67;;;9.00;99.90;;;;;;5015582;28;20029;-84
2024/03/12 07:30:27;;;;;;;37.45;20.30;;;9.00;99.90;;;;;;5014064;28;20042;-85
2024/03/12 07:32:53;;;;;;;33.80;20.48;;;9.00;99.90;;;;;;5014100;28;20120;-84
2024/03/12 07:35:19;;;;;;;36.75;19.75;;;9.10;99.90;;;;;;5014320;28;20026;-85
2024/03/12 07:37:45;;;;;;;36.72;19.85;;;9.00;99.90;;;;;;4981781;28;20030;-84
2024/03/12 07:40:15;;;;;;;35.25;19.38;;;9.10;99.90;;;;;;5014867;28;20455;-85
2024/03/12 07:42:44;;;;;;;33.47;18.33;;;9.10;99.90;;;;;;5015508;28;20036;-84
2024/03/12 07:45:12;;;;;;;32.65;18.77;;;9.00;99.90;;;;;;5038558;28;20030;-83
2024/03/12 07:47:41;;;;;;;32.35;18.73;;;9.00;99.90;;;;;;5038222;28;20093;-84
2024/03/12 07:50:09;;;;;;;35.22;19.35;;;9.00;99.90;;;;;;5022957;28;20089;-83
2024/03/12 07:52:37;;;;;;;33.28;19.10;;;9.10;99.90;;;;;;5039390;28;20022;-84
2024/03/12 07:55:05;;;;;;;33.58;18.23;;;9.10;99.90;;;;;;5024658;28;20049;-84
2024/03/12 07:57:32;;;;;;;31.80;18.38;;;9.10;99.90;;;;;;5033751;28;20026;-84
2024/03/12 08:00:05;;;;;;;34.88;18.48;;;9.10;99.90;;;;;;5014428;28;20037;-84
2024/03/12 08:02:31;;;;;;;35.53;19.60;;;9.10;99.90;;;;;;5015077;28;20034;-83
2024/03/12 08:05:00;;;;;;;32.00;19.55;;;9.10;99.90;;;;;;4998624;28;20053;-84
2024/03/12 08:07:25;;;;;;;34.67;19.45;;;9.10;99.90;;;;;;5036060;28;20026;-83
2024/03/12 08:09:51;;;;;;;35.50;20.85;;;9.00;99.90;;;;;;5035809;28;20061;-84
2024/03/12 08:12:19;;;;;;;34.97;20.38;;;9.00;99.90;;;;;;5032368;28;20034;-84
2024/03/12 08:14:45;;;;;;;34.33;20.20;;;9.00;99.90;;;;;;5027713;28;20030;-83
2024/03/12 08:17:14;;;;;;;35.70;20.48;;;9.00;99.90;;;;;;5033201;28;20401;-84
2024/03/12 08:19:42;;;;;;;33.63;20.20;;;9.00;99.90;;;;;;5030215;28;20057;-84
2024/03/12 08:22:11;;;;;;;32.83;19.40;;;9.10;99.90;;;;;;5029917;28;20034;-82
2024/03/12 08:24:40;;;;;;;33.47;19.98;;;9.10;99.90;;;;;;4996948;28;20401;-83
2024/03/12 08:27:07;;;;;;;33.17;19.05;;;9.10;99.90;;;;;;5014447;28;20046;-84
2024/03/12 08:29:33;;;;;;;33.97;18.77;;;9.10;99.90;;;;;;5029652;28;20045;-84
2024/03/12 08:31:59;;;;;;;35.20;18.88;;;9.10;99.90;;;;;;5013263;28;20466;-84
2024/03/12 08:34:25;;;;;;;30.35;19.02;;;9.20;99.90;;;;;;4997031;28;20037;-83
2024/03/12 08:36:51;;;;;;;31.25;19.25;;;9.20;99.90;;;;;;5013256;28;20024;-84
2024/03/12 08:39:17;;;;;;;35.15;19.88;;;9.20;99.90;;;;;;5014308;28;20050;-84
2024/03/12 08:41:43;;;;;;;30.45;19.13;;;9.20;99.90;;;;;;5013076;28;20068;-85
2024/03/12 08:44:13;;;;;;;28.90;18.35;;;9.30;99.90;;;;;;5013266;28;20026;-83
2024/03/12 08:46:39;;;;;;;30.73;19.40;;;9.30;99.90;;;;;;5014148;28;20026;-84
2024/03/12 08:49:05;;;;;;;33.58;20.33;;;9.30;99.90;;;;;;5013358;28;20040;-85
2024/03/12 08:51:36;;;;;;;35.80;21.27;;;9.30;99.90;;;;;;5013489;28;20137;-84
2024/03/12 08:54:03;;;;;;;32.30;20.23;;;9.40;99.90;;;;;;5014608;28;20029;-83
2024/03/12 08:56:29;;;;;;;32.90;20.27;;;9.40;99.90;;;;;;5013483;28;20033;-84
2024/03/12 08:58:59;;;;;;;34.80;20.02;;;9.40;99.90;;;;;;4998150;28;20030;-83
2024/03/12 09:01:25;;;;;;;29.35;19.58;;;9.40;99.90;;;;;;5019394;28;20041;-84
2024/03/12 09:03:51;;;;;;;26.67;18.10;;;9.40;99.90;;;;;;5017174;28;20377;-83
2024/03/12 09:06:21;;;;;;;35.45;18.98;;;9.40;99.90;;;;;;5017372;28;20030;-84
2024/03/12 09:08:46;;;;;;;31.10;18.08;;;9.40;99.90;;;;;;5017040;28;20037;-83
2024/03/12 09:11:17;;;;;;;27.98;18.40;;;9.40;99.90;;;;;;5019155;28;20034;-84
2024/03/12 09:13:46;;;;;;;30.63;18.52;;;9.40;99.90;;;;;;5014725;28;20057;-84
2024/03/12 09:16:12;;;;;;;26.17;17.10;;;9.50;99.90;;;;;;5041708;28;20021;-83
2024/03/12 09:18:42;;;;;;;24.50;15.77;;;9.40;99.90;;;;;;5057759;28;20021;-82
2024/03/12 09:21:15;;;;;;;27.73;16.23;;;9.40;99.90;;;;;;5041924;28;20030;-82
2024/03/12 09:23:42;;;;;;;24.73;15.27;;;9.40;99.90;;;;;;5032927;28;20034;-84
2024/03/12 09:26:08;;;;;;;27.75;15.88;;;9.40;99.90;;;;;;5017819;28;20056;-84
2024/03/12 09:28:36;;;;;;;20.58;14.35;;;9.40;99.90;;;;;;5016736;28;20389;-83
2024/03/12 09:31:04;;;;;;;20.90;14.10;;;9.30;99.90;;;;;;5033088;28;20466;-83
2024/03/12 09:33:30;;;;;;;20.42;13.85;;;9.30;99.90;;;;;;5017191;28;20084;-84
2024/03/12 09:35:56;;;;;;;20.20;13.75;;;9.30;99.90;;;;;;5016648;28;20126;-84
2024/03/12 09:38:22;;;;;;;21.58;13.20;;;9.30;99.90;;;;;;5000516;28;20125;-83
2024/03/12 09:40:48;;;;;;;20.63;12.68;;;9.30;99.90;;;;;;5018028;28;20026;-82
2024/03/12 09:43:18;;;;;;;19.95;14.27;;;9.30;99.90;;;;;;5018015;28;20088;-83
2024/03/12 09:45:45;;;;;;;22.17;14.07;;;9.40;99.90;;;;;;5016626;28;20064;-82
2024/03/12 09:48:16;;;;;;;21.08;13.63;;;9.40;99.90;;;;;;5000361;28;20041;-84
2024/03/12 09:50:42;;;;;;;;;;;9.40;99.90;;;;;;5017738;28;20033;-84
2024/03/12 09:53:11;;;;;;;19.42;12.52;;;9.40;99.90;;;;;;5032900;28;20373;-84
2024/03/12 09:55:39;;;;;;;21.10;14.02;;;9.40;99.90;;;;;;5016197;28;20022;-85
2024/03/12 09:58:06;;;;;;;22.70;15.68;;;9.40;99.90;;;;;;5016445;28;20026;-84
2024/03/12 10:00:33;;;;;;;21.10;14.65;;;9.40;99.90;;;;;;5016528;28;20026;-83
2024/03/12 10:03:03;;;;;;;22.70;14.75;;;9.40;99.90;;;;;;5016282;28;20087;-85
2024/03/12 10:05:28;;;;;;;22.88;15.55;;;9.40;99.90;;;;;;5016140;28;20505;-84
2024/03/12 10:08:14;;;;;;;24.27;15.25;;;9.50;99.90;;;;;;4999835;28;20026;-84
2024/03/12 10:10:41;;;;;;;23.35;15.90;;;9.50;99.90;;;;;;5032592;28;20026;-83
2024/03/12 10:13:17;;;;;;;23.35;15.45;;;9.50;99.90;;;;;;5014559;28;20116;-84
2024/03/12 10:15:59;;;;;;;23.63;15.52;;;9.50;99.90;;;;;;5017171;28;20477;-83
2024/03/12 10:18:28;;;;;;;23.13;15.80;;;9.50;99.90;;;;;;5015981;28;20532;-83
2024/03/12 10:21:00;;;;;;;25.08;16.23;;;9.50;99.90;;;;;;5017233;28;20105;-84
2024/03/12 10:23:31;;;;;;;25.30;17.13;;;9.60;99.90;;;;;;5015710;28;20060;-84
2024/03/12 10:26:16;;;;;;;27.55;17.15;;;9.60;99.90;;;;;;5017386;28;20378;-84
2024/03/12 10:28:45;;;;;;;24.98;17.92;;;9.70;99.90;;;;;;5016117;28;20025;-84
2024/03/12 10:31:12;;;;;;;23.45;16.85;;;9.70;99.90;;;;;;5016880;28;20478;-84
2024/03/12 10:33:44;;;;;;;25.95;18.10;;;9.80;99.90;;;;;;4998660;28;20031;-84
2024/03/12 10:36:10;;;;;;;26.65;17.98;;;9.80;99.90;;;;;;5032062;28;20064;-84
2024/03/12 10:38:42;;;;;;;28.08;19.13;;;9.80;99.90;;;;;;5015746;28;20073;-85
2024/03/12 10:41:18;;;;;;;26.17;17.65;;;9.90;99.90;;;;;;5033058;28;20029;-84
2024/03/12 10:43:52;;;;;;;28.20;18.98;;;9.90;99.90;;;;;;5024990;28;20016;-83
2024/03/12 10:46:19;;;;;;;27.67;18.40;;;9.90;99.90;;;;;;5039685;28;20549;-81
2024/03/12 10:48:46;;;;;;;26.80;18.80;;;10.00;99.90;;;;;;5040017;28;20559;-82
2024/03/12 10:51:14;;;;;;;26.08;18.13;;;10.00;99.90;;;;;;5056141;28;20048;-83
2024/03/12 10:53:46;;;;;;;26.90;17.90;;;10.00;99.90;;;;;;5027002;28;20034;-84
2024/03/12 10:56:12;;;;;;;29.00;18.63;;;10.00;99.90;;;;;;5017683;28;20469;-83
2024/03/12 10:58:38;;;;;;;29.48;18.45;;;10.00;99.90;;;;;;5016593;28;20029;-84
2024/03/12 11:01:09;;;;;;;27.27;18.10;;;10.00;99.90;;;;;;5024582;28;20018;-82
2024/03/12 11:03:35;;;;;;;28.77;19.15;;;10.10;99.90;;;;;;5053738;28;20052;-82
2024/03/12 11:06:03;;;;;;;26.15;18.42;;;10.10;99.90;;;;;;5017685;28;20045;-83
2024/03/12 11:08:29;;;;;;;30.52;19.55;;;10.10;99.90;;;;;;5031239;28;20030;-83
2024/03/12 11:10:56;;;;;;;26.35;18.13;;;10.20;99.90;;;;;;5021827;28;20029;-84
2024/03/12 11:13:23;;;;;;;26.42;19.48;;;10.20;99.90;;;;;;5016194;28;20049;-82
2024/03/12 11:15:49;;;;;;;30.55;18.90;;;10.30;99.90;;;;;;5014897;28;20037;-83
2024/03/12 11:18:34;;;;;;;26.58;18.42;;;10.20;99.90;;;;;;5015936;28;20030;-83
2024/03/12 11:20:59;;;;;;;30.15;19.30;;;10.30;99.90;;;;;;5015347;28;20026;-82
2024/03/12 11:23:31;;;;;;;25.75;19.08;;;10.30;99.90;;;;;;5014441;28;20033;-84
2024/03/12 11:25:57;;;;;;;28.23;19.42;;;10.40;99.90;;;;;;5031204;28;20046;-83
2024/03/12 11:28:24;;;;;;;29.10;19.02;;;10.40;99.90;;;;;;5030982;28;20493;-82
2024/03/12 11:31:02;;;;;;;28.42;19.25;;;10.40;99.90;;;;;;5014406;28;20030;-83
2024/03/12 11:33:49;;;;;;;28.35;20.02;;;10.50;99.90;;;;;;5030749;28;20025;-82
2024/03/12 11:36:31;;;;;;;29.38;20.67;;;10.50;99.90;;;;;;5016087;28;20030;-83
2024/03/12 11:39:15;;;;;;;27.23;19.67;;;10.50;99.90;;;;;;5015753;28;20018;-84
2024/03/12 11:42:08;;;;;;;28.52;19.38;;;10.50;99.90;;;;;;5014454;28;20088;-84
2024/03/12 11:44:54;;;;;;;28.30;19.90;;;10.50;99.90;;;;;;5015791;28;20025;-83
2024/03/12 11:47:28;;;;;;;28.27;19.52;;;10.50;99.90;;;;;;5015616;28;20055;-83
2024/03/12 11:49:54;;;;;;;26.92;18.27;;;10.50;99.90;;;;;;5014374;28;20037;-83
2024/03/12 11:52:27;;;;;;;30.60;20.35;;;10.40;99.90;;;;;;5030644;28;20026;-83
2024/03/12 11:54:53;;;;;;;31.00;20.38;;;10.40;99.90;;;;;;5014801;28;20028;-83
2024/03/12 11:57:26;;;;;;;29.33;19.80;;;10.40;99.90;;;;;;5014020;28;20109;-84
2024/03/12 11:59:54;;;;;;;29.52;20.15;;;10.40;99.90;;;;;;5015236;28;20024;-84
2024/03/12 12:02:20;;;;;;;25.33;18.98;;;10.40;99.90;;;;;;5014180;28;20037;-84
2024/03/12 12:04:51;;;;;;;30.70;20.17;;;10.40;99.90;;;;;;4981838;28;20419;-83
2024/03/12 12:07:27;;;;;;;28.95;19.88;;;10.40;99.90;;;;;;5013758;28;20048;-83
2024/03/12 12:09:53;;;;;;;25.98;19.48;;;10.40;99.90;;;;;;5030560;28;20080;-84
2024/03/12 12:12:20;;;;;;;27.67;19.90;;;10.50;99.90;;;;;;5030540;28;20068;-83
2024/03/12 12:14:49;;;;;;;28.33;19.02;;;10.60;99.90;;;;;;5019211;28;20032;-82
2024/03/12 12:17:23;;;;;;;29.00;20.90;;;10.70;99.90;;;;;;5038015;28;20101;-83
2024/03/12 12:20:13;;;;;;;28.10;20.27;;;10.80;99.90;;;;;;5038115;28;20026;-82
2024/03/12 12:22:46;;;;;;;28.85;19.98;;;10.80;99.90;;;;;;5039003;28;20036;-79
2024/03/12 12:25:12;;;;;;;26.33;19.77;;;10.80;99.90;;;;;;5044414;28;20390;-83
2024/03/12 12:27:38;;;;;;;30.45;20.92;;;10.80;99.90;;;;;;4998022;28;20393;-82
2024/03/12 12:30:09;;;;;;;27.05;18.63;;;10.80;99.90;;;;;;5013921;28;20034;-84
2024/03/12 12:32:37;;;;;;;;;;;10.80;99.90;;;;;;5030740;28;20116;-83
2024/03/12 12:35:10;;;;;;;30.13;19.55;;;10.80;99.90;;;;;;5029635;28;19916;-83
2024/03/12 12:37:40;;;;;;;28.05;19.15;;;10.80;99.90;;;;;;5014863;28;20108;-82
2024/03/12 12:40:09;;;;;;;31.47;21.23;;;10.80;99.90;;;;;;5015058;28;20053;-83
2024/03/12 12:42:43;;;;;;;28.33;20.90;;;10.80;99.90;;;;;;4997712;28;20065;-83
2024/03/12 12:45:10;;;;;;;25.83;20.13;;;10.90;99.90;;;;;;4997386;28;20473;-83
2024/03/12 12:47:37;;;;;;;28.90;20.58;;;10.90;99.90;;;;;;5030060;28;20225;-82